< < Back
Terminal Aerodrome Forecast


Current Version              Previous Versions:   1  2  3  4  5  6  7  8  9  

Terminal Aerodrome Forecast

165
FTUS44 KMOB 191200 AAA
TAFMOB
TAF AMD
KMOB 191245Z 1913/2012 02008KT P6SM FEW013 SCT200
     FM191500 36011KT P6SM SCT250=

Latest METAR

554
SAUS80 KWBC 200000 RRA
MTRMOB
METAR KMOB 192356Z 36008KT 10SM CLR 23/09 A3007 RMK AO2 SLP179 T02330094
10261 20233 53007


USA.gov is the U.S. government's official web portal to all federal, state and local government web resources and services.